sensor_id;sensor_type;location;lat;lon;timestamp;P1;durP1;ratioP1;P2;durP2;ratioP2
24301;SDS011;12421;49.732;20.078;2023-12-20T00:08:40;3.50;;;2.10;;
24301;SDS011;12421;49.732;20.078;2023-12-20T00:18:43;4.20;;;2.40;;
24301;SDS011;12421;49.732;20.078;2023-12-20T00:28:46;3.40;;;2.00;;
24301;SDS011;12421;49.732;20.078;2023-12-20T00:38:50;4.50;;;2.20;;
24301;SDS011;12421;49.732;20.078;2023-12-20T00:48:55;3.70;;;2.30;;
24301;SDS011;12421;49.732;20.078;2023-12-20T00:58:58;3.80;;;2.20;;
24301;SDS011;12421;49.732;20.078;2023-12-20T01:09:02;3.60;;;2.20;;
24301;SDS011;12421;49.732;20.078;2023-12-20T01:19:05;4.00;;;2.40;;
24301;SDS011;12421;49.732;20.078;2023-12-20T01:29:10;5.10;;;2.60;;
24301;SDS011;12421;49.732;20.078;2023-12-20T01:39:13;3.90;;;2.20;;
24301;SDS011;12421;49.732;20.078;2023-12-20T01:49:29;3.30;;;2.10;;
24301;SDS011;12421;49.732;20.078;2023-12-20T01:59:34;4.20;;;2.50;;
24301;SDS011;12421;49.732;20.078;2023-12-20T02:09:38;3.60;;;2.30;;
24301;SDS011;12421;49.732;20.078;2023-12-20T02:19:41;4.00;;;2.20;;
24301;SDS011;12421;49.732;20.078;2023-12-20T02:29:44;4.70;;;2.60;;
24301;SDS011;12421;49.732;20.078;2023-12-20T02:39:50;4.50;;;2.30;;
24301;SDS011;12421;49.732;20.078;2023-12-20T02:49:53;3.80;;;2.50;;
24301;SDS011;12421;49.732;20.078;2023-12-20T02:59:57;3.90;;;2.20;;
24301;SDS011;12421;49.732;20.078;2023-12-20T03:10:00;5.90;;;2.30;;
24301;SDS011;12421;49.732;20.078;2023-12-20T03:20:21;5.40;;;2.80;;
24301;SDS011;12421;49.732;20.078;2023-12-20T03:30:25;4.70;;;2.90;;
24301;SDS011;12421;49.732;20.078;2023-12-20T03:40:28;4.30;;;2.60;;
24301;SDS011;12421;49.732;20.078;2023-12-20T03:50:31;3.80;;;2.60;;
24301;SDS011;12421;49.732;20.078;2023-12-20T04:00:35;4.60;;;2.40;;
24301;SDS011;12421;49.732;20.078;2023-12-20T04:10:39;4.80;;;2.20;;
24301;SDS011;12421;49.732;20.078;2023-12-20T04:20:42;4.30;;;2.50;;
24301;SDS011;12421;49.732;20.078;2023-12-20T04:30:45;3.90;;;2.70;;
24301;SDS011;12421;49.732;20.078;2023-12-20T04:40:49;5.40;;;3.30;;
24301;SDS011;12421;49.732;20.078;2023-12-20T04:50:52;4.20;;;3.00;;
24301;SDS011;12421;49.732;20.078;2023-12-20T05:00:55;5.90;;;3.20;;
24301;SDS011;12421;49.732;20.078;2023-12-20T05:10:59;5.90;;;3.30;;
24301;SDS011;12421;49.732;20.078;2023-12-20T05:21:02;7.20;;;4.10;;
24301;SDS011;12421;49.732;20.078;2023-12-20T05:31:06;7.10;;;3.80;;
24301;SDS011;12421;49.732;20.078;2023-12-20T05:41:10;5.10;;;3.60;;
24301;SDS011;12421;49.732;20.078;2023-12-20T05:51:13;9.90;;;4.30;;
24301;SDS011;12421;49.732;20.078;2023-12-20T06:01:17;5.80;;;3.80;;
24301;SDS011;12421;49.732;20.078;2023-12-20T06:11:20;6.20;;;3.60;;
24301;SDS011;12421;49.732;20.078;2023-12-20T06:21:23;7.10;;;3.40;;
24301;SDS011;12421;49.732;20.078;2023-12-20T06:31:27;5.20;;;3.00;;
24301;SDS011;12421;49.732;20.078;2023-12-20T06:41:30;7.90;;;3.80;;
24301;SDS011;12421;49.732;20.078;2023-12-20T06:51:34;6.30;;;3.40;;
24301;SDS011;12421;49.732;20.078;2023-12-20T07:01:37;6.30;;;4.10;;
24301;SDS011;12421;49.732;20.078;2023-12-20T07:11:41;6.20;;;3.70;;
24301;SDS011;12421;49.732;20.078;2023-12-20T07:21:44;6.10;;;4.00;;
24301;SDS011;12421;49.732;20.078;2023-12-20T07:31:48;6.00;;;3.50;;
24301;SDS011;12421;49.732;20.078;2023-12-20T07:41:51;5.30;;;3.30;;
24301;SDS011;12421;49.732;20.078;2023-12-20T07:51:55;8.10;;;4.60;;
24301;SDS011;12421;49.732;20.078;2023-12-20T08:01:59;8.70;;;3.80;;
24301;SDS011;12421;49.732;20.078;2023-12-20T08:12:03;8.10;;;4.70;;
24301;SDS011;12421;49.732;20.078;2023-12-20T08:22:07;5.80;;;3.60;;
24301;SDS011;12421;49.732;20.078;2023-12-20T08:32:10;12.90;;;6.50;;
24301;SDS011;12421;49.732;20.078;2023-12-20T08:42:14;9.60;;;6.10;;
24301;SDS011;12421;49.732;20.078;2023-12-20T08:52:17;10.70;;;7.40;;
24301;SDS011;12421;49.732;20.078;2023-12-20T09:02:21;11.80;;;8.30;;
24301;SDS011;12421;49.732;20.078;2023-12-20T09:12:24;14.50;;;8.50;;
24301;SDS011;12421;49.732;20.078;2023-12-20T09:22:28;11.30;;;8.20;;
24301;SDS011;12421;49.732;20.078;2023-12-20T09:32:32;12.10;;;7.60;;
24301;SDS011;12421;49.732;20.078;2023-12-20T09:42:38;9.80;;;6.80;;
24301;SDS011;12421;49.732;20.078;2023-12-20T09:53:00;12.60;;;6.80;;
24301;SDS011;12421;49.732;20.078;2023-12-20T10:03:05;8.70;;;5.60;;
24301;SDS011;12421;49.732;20.078;2023-12-20T10:13:11;9.30;;;6.50;;
24301;SDS011;12421;49.732;20.078;2023-12-20T10:23:16;9.30;;;5.90;;
24301;SDS011;12421;49.732;20.078;2023-12-20T10:33:24;9.10;;;6.10;;
24301;SDS011;12421;49.732;20.078;2023-12-20T10:43:32;8.30;;;5.20;;
24301;SDS011;12421;49.732;20.078;2023-12-20T10:53:36;8.80;;;4.60;;
24301;SDS011;12421;49.732;20.078;2023-12-20T11:03:52;6.30;;;3.70;;
24301;SDS011;12421;49.732;20.078;2023-12-20T11:13:58;6.10;;;3.90;;
24301;SDS011;12421;49.732;20.078;2023-12-20T11:24:05;5.00;;;3.40;;
24301;SDS011;12421;49.732;20.078;2023-12-20T11:34:14;5.70;;;3.40;;
24301;SDS011;12421;49.732;20.078;2023-12-20T11:44:20;7.90;;;4.20;;
24301;SDS011;12421;49.732;20.078;2023-12-20T11:54:23;6.50;;;4.20;;
24301;SDS011;12421;49.732;20.078;2023-12-20T12:04:27;7.00;;;3.50;;
24301;SDS011;12421;49.732;20.078;2023-12-20T12:14:31;7.80;;;4.50;;
24301;SDS011;12421;49.732;20.078;2023-12-20T12:24:35;5.90;;;3.20;;
24301;SDS011;12421;49.732;20.078;2023-12-20T12:34:39;8.90;;;5.10;;
24301;SDS011;12421;49.732;20.078;2023-12-20T12:44:43;5.40;;;3.30;;
24301;SDS011;12421;49.732;20.078;2023-12-20T12:54:46;6.20;;;3.10;;
24301;SDS011;12421;49.732;20.078;2023-12-20T13:04:50;6.60;;;3.80;;
24301;SDS011;12421;49.732;20.078;2023-12-20T13:14:54;6.30;;;3.40;;
24301;SDS011;12421;49.732;20.078;2023-12-20T13:24:58;11.10;;;7.40;;
24301;SDS011;12421;49.732;20.078;2023-12-20T13:35:01;5.70;;;3.70;;
24301;SDS011;12421;49.732;20.078;2023-12-20T13:45:05;7.00;;;3.80;;
24301;SDS011;12421;49.732;20.078;2023-12-20T13:55:09;5.90;;;3.70;;
24301;SDS011;12421;49.732;20.078;2023-12-20T14:05:13;4.10;;;2.70;;
24301;SDS011;12421;49.732;20.078;2023-12-20T14:15:21;5.20;;;2.80;;
24301;SDS011;12421;49.732;20.078;2023-12-20T14:25:27;3.50;;;2.10;;
24301;SDS011;12421;49.732;20.078;2023-12-20T14:35:35;8.60;;;4.20;;
24301;SDS011;12421;49.732;20.078;2023-12-20T14:45:38;9.50;;;6.10;;
24301;SDS011;12421;49.732;20.078;2023-12-20T14:55:42;6.20;;;3.10;;
24301;SDS011;12421;49.732;20.078;2023-12-20T15:05:45;5.00;;;2.80;;
24301;SDS011;12421;49.732;20.078;2023-12-20T15:15:50;5.80;;;3.20;;
24301;SDS011;12421;49.732;20.078;2023-12-20T15:25:54;6.40;;;3.50;;
24301;SDS011;12421;49.732;20.078;2023-12-20T15:35:58;8.60;;;4.70;;
24301;SDS011;12421;49.732;20.078;2023-12-20T15:46:01;25.60;;;13.80;;
24301;SDS011;12421;49.732;20.078;2023-12-20T15:56:08;16.80;;;8.90;;
24301;SDS011;12421;49.732;20.078;2023-12-20T16:06:11;12.40;;;6.60;;
24301;SDS011;12421;49.732;20.078;2023-12-20T16:16:15;7.80;;;5.00;;
24301;SDS011;12421;49.732;20.078;2023-12-20T16:26:18;22.20;;;11.50;;
24301;SDS011;12421;49.732;20.078;2023-12-20T16:36:21;15.40;;;9.00;;
24301;SDS011;12421;49.732;20.078;2023-12-20T16:46:25;17.10;;;9.50;;
24301;SDS011;12421;49.732;20.078;2023-12-20T16:56:29;23.10;;;12.10;;
24301;SDS011;12421;49.732;20.078;2023-12-20T17:06:33;19.00;;;9.70;;
24301;SDS011;12421;49.732;20.078;2023-12-20T17:16:37;24.50;;;11.60;;
24301;SDS011;12421;49.732;20.078;2023-12-20T17:26:40;23.60;;;13.50;;
24301;SDS011;12421;49.732;20.078;2023-12-20T17:36:44;39.70;;;21.50;;
24301;SDS011;12421;49.732;20.078;2023-12-20T17:46:50;23.40;;;12.70;;
24301;SDS011;12421;49.732;20.078;2023-12-20T17:56:53;41.30;;;23.20;;
24301;SDS011;12421;49.732;20.078;2023-12-20T18:06:58;30.90;;;16.40;;
24301;SDS011;12421;49.732;20.078;2023-12-20T18:17:01;21.20;;;12.10;;
24301;SDS011;12421;49.732;20.078;2023-12-20T18:27:05;17.90;;;10.10;;
24301;SDS011;12421;49.732;20.078;2023-12-20T18:37:09;10.90;;;5.70;;
24301;SDS011;12421;49.732;20.078;2023-12-20T18:47:14;18.10;;;9.10;;
24301;SDS011;12421;49.732;20.078;2023-12-20T18:57:17;9.50;;;5.20;;
24301;SDS011;12421;49.732;20.078;2023-12-20T19:07:21;7.20;;;4.50;;
24301;SDS011;12421;49.732;20.078;2023-12-20T19:17:24;8.70;;;4.50;;
24301;SDS011;12421;49.732;20.078;2023-12-20T19:27:28;8.10;;;3.80;;
24301;SDS011;12421;49.732;20.078;2023-12-20T19:37:32;9.50;;;4.80;;
24301;SDS011;12421;49.732;20.078;2023-12-20T19:47:35;7.90;;;4.60;;
24301;SDS011;12421;49.732;20.078;2023-12-20T19:57:39;15.90;;;8.70;;
24301;SDS011;12421;49.732;20.078;2023-12-20T20:07:42;13.50;;;6.60;;
24301;SDS011;12421;49.732;20.078;2023-12-20T20:17:46;7.40;;;4.10;;
24301;SDS011;12421;49.732;20.078;2023-12-20T20:27:51;10.60;;;5.60;;
24301;SDS011;12421;49.732;20.078;2023-12-20T20:37:55;9.90;;;5.90;;
24301;SDS011;12421;49.732;20.078;2023-12-20T20:47:58;13.30;;;7.10;;
24301;SDS011;12421;49.732;20.078;2023-12-20T20:58:18;7.60;;;4.10;;
24301;SDS011;12421;49.732;20.078;2023-12-20T21:08:22;11.90;;;5.80;;
24301;SDS011;12421;49.732;20.078;2023-12-20T21:18:25;14.60;;;6.60;;
24301;SDS011;12421;49.732;20.078;2023-12-20T21:28:31;17.10;;;8.70;;
24301;SDS011;12421;49.732;20.078;2023-12-20T21:38:36;8.30;;;4.30;;
24301;SDS011;12421;49.732;20.078;2023-12-20T21:48:39;8.60;;;4.80;;
24301;SDS011;12421;49.732;20.078;2023-12-20T21:58:42;17.70;;;9.00;;
24301;SDS011;12421;49.732;20.078;2023-12-20T22:08:50;18.20;;;9.20;;
24301;SDS011;12421;49.732;20.078;2023-12-20T22:18:55;18.40;;;9.20;;
24301;SDS011;12421;49.732;20.078;2023-12-20T22:29:00;9.70;;;5.60;;
24301;SDS011;12421;49.732;20.078;2023-12-20T22:39:03;9.90;;;5.60;;
24301;SDS011;12421;49.732;20.078;2023-12-20T22:49:06;9.30;;;5.60;;
24301;SDS011;12421;49.732;20.078;2023-12-20T22:59:10;9.10;;;5.20;;
24301;SDS011;12421;49.732;20.078;2023-12-20T23:09:16;8.20;;;4.40;;
24301;SDS011;12421;49.732;20.078;2023-12-20T23:19:20;7.10;;;4.10;;
24301;SDS011;12421;49.732;20.078;2023-12-20T23:29:23;8.00;;;3.50;;
24301;SDS011;12421;49.732;20.078;2023-12-20T23:39:26;6.90;;;3.40;;
24301;SDS011;12421;49.732;20.078;2023-12-20T23:49:30;8.90;;;4.40;;
24301;SDS011;12421;49.732;20.078;2023-12-20T23:59:33;5.80;;;3.70;;
